Rubidoux, California
Current Conditions -  °F | °C
As of 7:53 AM on Friday 28 Nov 2014 (Local Time) from KRAL Reporting Station
Clear Clear  
Wind Chill: 56°   Ceiling: Unl
Heat Index: 56°   Visibility: 10mi
Dew Point: 28°   Wind: 5mph
Humidity: 34%   Direction: 50°NE
Pressure: 30.02"   Gusts: NA
Location:  33.9957°N, 117.412°W
Report Text: KRAL 281553Z 05004KT 10SM CLR 13/M02 A3002 RMK AO2 SLP153 T01331022
Loading
Personal Weather Stations






























Interactive Weather Map New forecast layout! Learn more

10-Day Weather Forecast

Advertisements
Track Severe Weather on mobile